sensor_id;sensor_type;location;lat;lon;timestamp;P1;durP1;ratioP1;P2;durP2;ratioP2
44228;SDS011;29904;51.058;5.378;2022-08-23T00:01:06;5.00;;;2.17;;
44228;SDS011;29904;51.058;5.378;2022-08-23T00:03:35;5.03;;;2.45;;
44228;SDS011;29904;51.058;5.378;2022-08-23T00:06:00;4.97;;;1.92;;
44228;SDS011;29904;51.058;5.378;2022-08-23T00:08:26;5.20;;;2.70;;
44228;SDS011;29904;51.058;5.378;2022-08-23T00:10:53;6.53;;;2.67;;
44228;SDS011;29904;51.058;5.378;2022-08-23T00:13:19;5.67;;;2.40;;
44228;SDS011;29904;51.058;5.378;2022-08-23T00:15:46;4.38;;;2.38;;
44228;SDS011;29904;51.058;5.378;2022-08-23T00:18:12;6.28;;;2.75;;
44228;SDS011;29904;51.058;5.378;2022-08-23T00:20:39;4.32;;;2.60;;
44228;SDS011;29904;51.058;5.378;2022-08-23T00:23:05;5.60;;;2.60;;
44228;SDS011;29904;51.058;5.378;2022-08-23T00:25:31;3.80;;;2.38;;
44228;SDS011;29904;51.058;5.378;2022-08-23T00:27:56;5.85;;;2.38;;
44228;SDS011;29904;51.058;5.378;2022-08-23T00:30:22;5.77;;;2.60;;
44228;SDS011;29904;51.058;5.378;2022-08-23T00:32:54;3.83;;;2.40;;
44228;SDS011;29904;51.058;5.378;2022-08-23T00:35:20;4.23;;;2.50;;
44228;SDS011;29904;51.058;5.378;2022-08-23T00:37:46;5.50;;;2.40;;
44228;SDS011;29904;51.058;5.378;2022-08-23T00:40:15;5.32;;;2.40;;
44228;SDS011;29904;51.058;5.378;2022-08-23T00:42:43;6.68;;;2.67;;
44228;SDS011;29904;51.058;5.378;2022-08-23T00:45:40;4.57;;;3.00;;
44228;SDS011;29904;51.058;5.378;2022-08-23T00:48:37;6.45;;;2.63;;
44228;SDS011;29904;51.058;5.378;2022-08-23T00:51:11;4.13;;;2.75;;
44228;SDS011;29904;51.058;5.378;2022-08-23T00:53:46;3.38;;;2.63;;
44228;SDS011;29904;51.058;5.378;2022-08-23T00:56:15;5.22;;;2.65;;
44228;SDS011;29904;51.058;5.378;2022-08-23T00:58:42;3.90;;;2.65;;
44228;SDS011;29904;51.058;5.378;2022-08-23T01:01:10;4.32;;;2.60;;
44228;SDS011;29904;51.058;5.378;2022-08-23T01:03:37;3.97;;;2.50;;
44228;SDS011;29904;51.058;5.378;2022-08-23T01:08:35;5.22;;;2.50;;
44228;SDS011;29904;51.058;5.378;2022-08-23T01:11:18;5.30;;;2.70;;
44228;SDS011;29904;51.058;5.378;2022-08-23T01:13:57;4.30;;;2.70;;
44228;SDS011;29904;51.058;5.378;2022-08-23T01:16:33;5.00;;;2.77;;
44228;SDS011;29904;51.058;5.378;2022-08-23T01:19:04;4.78;;;3.10;;
44228;SDS011;29904;51.058;5.378;2022-08-23T01:22:03;3.95;;;2.35;;
44228;SDS011;29904;51.058;5.378;2022-08-23T01:24:43;4.10;;;2.87;;
44228;SDS011;29904;51.058;5.378;2022-08-23T01:27:10;8.02;;;3.47;;
44228;SDS011;29904;51.058;5.378;2022-08-23T01:29:38;4.85;;;2.70;;
44228;SDS011;29904;51.058;5.378;2022-08-23T01:32:05;5.68;;;3.00;;
44228;SDS011;29904;51.058;5.378;2022-08-23T01:34:33;6.20;;;3.60;;
44228;SDS011;29904;51.058;5.378;2022-08-23T01:37:02;7.25;;;3.45;;
44228;SDS011;29904;51.058;5.378;2022-08-23T01:39:30;6.15;;;3.50;;
44228;SDS011;29904;51.058;5.378;2022-08-23T01:41:56;5.25;;;3.10;;
44228;SDS011;29904;51.058;5.378;2022-08-23T01:44:23;4.17;;;2.73;;
44228;SDS011;29904;51.058;5.378;2022-08-23T01:46:51;7.03;;;3.13;;
44228;SDS011;29904;51.058;5.378;2022-08-23T01:49:17;4.55;;;3.00;;
44228;SDS011;29904;51.058;5.378;2022-08-23T01:51:43;6.33;;;3.43;;
44228;SDS011;29904;51.058;5.378;2022-08-23T01:54:10;5.22;;;3.10;;
44228;SDS011;29904;51.058;5.378;2022-08-23T01:56:36;4.40;;;2.72;;
44228;SDS011;29904;51.058;5.378;2022-08-23T01:59:04;3.78;;;2.70;;
44228;SDS011;29904;51.058;5.378;2022-08-23T02:01:31;5.22;;;3.28;;
44228;SDS011;29904;51.058;5.378;2022-08-23T02:03:57;4.57;;;2.80;;
44228;SDS011;29904;51.058;5.378;2022-08-23T02:06:23;5.77;;;3.10;;
44228;SDS011;29904;51.058;5.378;2022-08-23T02:08:51;6.60;;;3.03;;
44228;SDS011;29904;51.058;5.378;2022-08-23T02:11:25;4.80;;;2.90;;
44228;SDS011;29904;51.058;5.378;2022-08-23T02:13:53;6.78;;;2.90;;
44228;SDS011;29904;51.058;5.378;2022-08-23T02:16:27;4.45;;;2.70;;
44228;SDS011;29904;51.058;5.378;2022-08-23T02:18:55;4.28;;;3.20;;
44228;SDS011;29904;51.058;5.378;2022-08-23T02:21:21;5.45;;;3.00;;
44228;SDS011;29904;51.058;5.378;2022-08-23T02:23:50;5.83;;;3.20;;
44228;SDS011;29904;51.058;5.378;2022-08-23T02:26:16;5.43;;;3.17;;
44228;SDS011;29904;51.058;5.378;2022-08-23T02:28:42;5.60;;;2.90;;
44228;SDS011;29904;51.058;5.378;2022-08-23T02:31:08;4.13;;;2.88;;
44228;SDS011;29904;51.058;5.378;2022-08-23T02:33:35;4.07;;;2.90;;
44228;SDS011;29904;51.058;5.378;2022-08-23T02:36:03;5.03;;;3.00;;
44228;SDS011;29904;51.058;5.378;2022-08-23T02:38:28;5.03;;;3.30;;
44228;SDS011;29904;51.058;5.378;2022-08-23T02:40:54;6.38;;;3.50;;
44228;SDS011;29904;51.058;5.378;2022-08-23T02:43:20;5.70;;;3.28;;
44228;SDS011;29904;51.058;5.378;2022-08-23T02:45:46;5.68;;;3.65;;
44228;SDS011;29904;51.058;5.378;2022-08-23T02:48:14;6.10;;;3.35;;
44228;SDS011;29904;51.058;5.378;2022-08-23T02:50:39;4.38;;;3.05;;
44228;SDS011;29904;51.058;5.378;2022-08-23T02:53:05;5.50;;;3.30;;
44228;SDS011;29904;51.058;5.378;2022-08-23T02:55:32;4.28;;;2.97;;
44228;SDS011;29904;51.058;5.378;2022-08-23T02:57:57;6.35;;;3.50;;
44228;SDS011;29904;51.058;5.378;2022-08-23T03:00:25;5.07;;;3.33;;
44228;SDS011;29904;51.058;5.378;2022-08-23T03:02:51;4.40;;;3.43;;
44228;SDS011;29904;51.058;5.378;2022-08-23T03:05:17;6.20;;;3.70;;
44228;SDS011;29904;51.058;5.378;2022-08-23T03:07:43;5.28;;;3.33;;
44228;SDS011;29904;51.058;5.378;2022-08-23T03:10:09;5.57;;;4.00;;
44228;SDS011;29904;51.058;5.378;2022-08-23T03:12:36;9.35;;;4.20;;
44228;SDS011;29904;51.058;5.378;2022-08-23T03:15:04;8.02;;;4.32;;
44228;SDS011;29904;51.058;5.378;2022-08-23T03:17:30;5.63;;;3.40;;
44228;SDS011;29904;51.058;5.378;2022-08-23T03:19:56;6.88;;;4.07;;
44228;SDS011;29904;51.058;5.378;2022-08-23T03:22:22;6.40;;;3.90;;
44228;SDS011;29904;51.058;5.378;2022-08-23T03:24:48;6.20;;;4.07;;
44228;SDS011;29904;51.058;5.378;2022-08-23T03:27:13;5.65;;;3.50;;
44228;SDS011;29904;51.058;5.378;2022-08-23T03:29:39;7.35;;;4.13;;
44228;SDS011;29904;51.058;5.378;2022-08-23T03:32:08;7.13;;;3.90;;
44228;SDS011;29904;51.058;5.378;2022-08-23T03:34:36;5.88;;;4.07;;
44228;SDS011;29904;51.058;5.378;2022-08-23T03:37:02;6.55;;;4.15;;
44228;SDS011;29904;51.058;5.378;2022-08-23T03:39:27;7.03;;;4.47;;
44228;SDS011;29904;51.058;5.378;2022-08-23T03:41:53;7.55;;;4.57;;
44228;SDS011;29904;51.058;5.378;2022-08-23T03:44:19;6.93;;;4.40;;
44228;SDS011;29904;51.058;5.378;2022-08-23T03:46:45;10.10;;;5.30;;
44228;SDS011;29904;51.058;5.378;2022-08-23T03:49:13;7.57;;;4.70;;
44228;SDS011;29904;51.058;5.378;2022-08-23T03:51:38;6.70;;;4.97;;
44228;SDS011;29904;51.058;5.378;2022-08-23T03:54:04;7.73;;;5.20;;
44228;SDS011;29904;51.058;5.378;2022-08-23T03:56:32;8.50;;;5.05;;
44228;SDS011;29904;51.058;5.378;2022-08-23T03:59:03;7.93;;;5.03;;
44228;SDS011;29904;51.058;5.378;2022-08-23T04:01:31;7.55;;;4.57;;
44228;SDS011;29904;51.058;5.378;2022-08-23T04:03:57;7.72;;;5.00;;
44228;SDS011;29904;51.058;5.378;2022-08-23T04:06:24;7.72;;;5.57;;
44228;SDS011;29904;51.058;5.378;2022-08-23T04:08:51;7.73;;;5.30;;
44228;SDS011;29904;51.058;5.378;2022-08-23T04:11:19;9.73;;;5.65;;
44228;SDS011;29904;51.058;5.378;2022-08-23T04:13:45;8.13;;;5.90;;
44228;SDS011;29904;51.058;5.378;2022-08-23T04:16:11;9.32;;;5.57;;
44228;SDS011;29904;51.058;5.378;2022-08-23T04:18:37;7.18;;;4.80;;
44228;SDS011;29904;51.058;5.378;2022-08-23T04:21:05;8.07;;;4.85;;
44228;SDS011;29904;51.058;5.378;2022-08-23T04:23:34;7.15;;;5.07;;
44228;SDS011;29904;51.058;5.378;2022-08-23T04:26:01;6.95;;;5.10;;
44228;SDS011;29904;51.058;5.378;2022-08-23T04:28:27;7.82;;;4.90;;
44228;SDS011;29904;51.058;5.378;2022-08-23T04:30:55;10.23;;;5.60;;
44228;SDS011;29904;51.058;5.378;2022-08-23T04:33:24;7.18;;;4.85;;
44228;SDS011;29904;51.058;5.378;2022-08-23T04:35:50;7.45;;;4.75;;
44228;SDS011;29904;51.058;5.378;2022-08-23T04:38:18;8.85;;;5.47;;
44228;SDS011;29904;51.058;5.378;2022-08-23T04:40:44;7.43;;;5.10;;
44228;SDS011;29904;51.058;5.378;2022-08-23T04:43:29;10.15;;;5.80;;
44228;SDS011;29904;51.058;5.378;2022-08-23T04:45:54;7.77;;;5.00;;
44228;SDS011;29904;51.058;5.378;2022-08-23T04:48:20;8.10;;;5.73;;
44228;SDS011;29904;51.058;5.378;2022-08-23T04:50:47;8.73;;;5.53;;
44228;SDS011;29904;51.058;5.378;2022-08-23T04:53:13;9.37;;;5.70;;
44228;SDS011;29904;51.058;5.378;2022-08-23T04:55:39;7.47;;;5.50;;
44228;SDS011;29904;51.058;5.378;2022-08-23T04:58:07;10.48;;;5.95;;
44228;SDS011;29904;51.058;5.378;2022-08-23T05:00:32;9.57;;;5.85;;
44228;SDS011;29904;51.058;5.378;2022-08-23T05:02:58;10.67;;;5.90;;
44228;SDS011;29904;51.058;5.378;2022-08-23T05:05:26;10.43;;;5.93;;
44228;SDS011;29904;51.058;5.378;2022-08-23T05:07:52;9.70;;;6.35;;
44228;SDS011;29904;51.058;5.378;2022-08-23T05:10:19;10.25;;;5.95;;
44228;SDS011;29904;51.058;5.378;2022-08-23T05:12:46;7.70;;;5.80;;
44228;SDS011;29904;51.058;5.378;2022-08-23T05:15:14;9.75;;;6.32;;
44228;SDS011;29904;51.058;5.378;2022-08-23T05:17:40;9.27;;;5.70;;
44228;SDS011;29904;51.058;5.378;2022-08-23T05:20:06;10.27;;;6.30;;
44228;SDS011;29904;51.058;5.378;2022-08-23T05:22:35;10.32;;;5.75;;
44228;SDS011;29904;51.058;5.378;2022-08-23T05:25:02;7.78;;;5.78;;
44228;SDS011;29904;51.058;5.378;2022-08-23T05:27:28;12.35;;;6.20;;
44228;SDS011;29904;51.058;5.378;2022-08-23T05:29:54;14.27;;;6.40;;
44228;SDS011;29904;51.058;5.378;2022-08-23T05:32:21;11.10;;;6.10;;
44228;SDS011;29904;51.058;5.378;2022-08-23T05:34:47;12.70;;;6.50;;
44228;SDS011;29904;51.058;5.378;2022-08-23T05:37:13;11.07;;;6.13;;
44228;SDS011;29904;51.058;5.378;2022-08-23T05:39:40;12.35;;;6.57;;
44228;SDS011;29904;51.058;5.378;2022-08-23T05:42:07;10.93;;;6.35;;
44228;SDS011;29904;51.058;5.378;2022-08-23T05:44:35;10.00;;;6.00;;
44228;SDS011;29904;51.058;5.378;2022-08-23T05:47:02;10.68;;;5.88;;
44228;SDS011;29904;51.058;5.378;2022-08-23T05:49:33;9.05;;;6.00;;
44228;SDS011;29904;51.058;5.378;2022-08-23T05:52:01;8.88;;;6.28;;
44228;SDS011;29904;51.058;5.378;2022-08-23T05:54:29;11.50;;;6.88;;
44228;SDS011;29904;51.058;5.378;2022-08-23T05:56:54;13.80;;;7.03;;
44228;SDS011;29904;51.058;5.378;2022-08-23T05:59:20;12.45;;;6.72;;
44228;SDS011;29904;51.058;5.378;2022-08-23T06:01:48;11.02;;;6.55;;
44228;SDS011;29904;51.058;5.378;2022-08-23T06:04:14;11.80;;;6.60;;
44228;SDS011;29904;51.058;5.378;2022-08-23T06:06:40;10.75;;;6.13;;
44228;SDS011;29904;51.058;5.378;2022-08-23T06:09:08;10.73;;;6.45;;
44228;SDS011;29904;51.058;5.378;2022-08-23T06:11:37;10.52;;;6.45;;
44228;SDS011;29904;51.058;5.378;2022-08-23T06:14:03;13.25;;;6.95;;
44228;SDS011;29904;51.058;5.378;2022-08-23T06:16:33;11.65;;;6.30;;
44228;SDS011;29904;51.058;5.378;2022-08-23T06:19:01;12.45;;;6.85;;
44228;SDS011;29904;51.058;5.378;2022-08-23T06:21:27;9.53;;;6.10;;
44228;SDS011;29904;51.058;5.378;2022-08-23T06:23:54;15.05;;;6.97;;
44228;SDS011;29904;51.058;5.378;2022-08-23T06:26:20;11.17;;;6.47;;
44228;SDS011;29904;51.058;5.378;2022-08-23T06:28:48;13.48;;;6.18;;
44228;SDS011;29904;51.058;5.378;2022-08-23T06:31:17;10.48;;;6.72;;
44228;SDS011;29904;51.058;5.378;2022-08-23T06:34:06;14.13;;;6.95;;
44228;SDS011;29904;51.058;5.378;2022-08-23T06:36:37;11.80;;;6.57;;
44228;SDS011;29904;51.058;5.378;2022-08-23T06:39:07;11.70;;;6.37;;
44228;SDS011;29904;51.058;5.378;2022-08-23T06:41:35;12.23;;;6.07;;
44228;SDS011;29904;51.058;5.378;2022-08-23T06:44:02;12.30;;;6.20;;
44228;SDS011;29904;51.058;5.378;2022-08-23T06:46:28;13.00;;;6.47;;
44228;SDS011;29904;51.058;5.378;2022-08-23T06:48:55;12.02;;;6.30;;
44228;SDS011;29904;51.058;5.378;2022-08-23T06:51:32;14.02;;;5.90;;
44228;SDS011;29904;51.058;5.378;2022-08-23T06:54:08;11.60;;;6.20;;
44228;SDS011;29904;51.058;5.378;2022-08-23T06:56:36;12.10;;;6.22;;
44228;SDS011;29904;51.058;5.378;2022-08-23T06:59:03;11.90;;;6.10;;
44228;SDS011;29904;51.058;5.378;2022-08-23T07:01:35;10.90;;;5.83;;
44228;SDS011;29904;51.058;5.378;2022-08-23T07:04:04;12.47;;;6.70;;
44228;SDS011;29904;51.058;5.378;2022-08-23T07:06:32;11.30;;;6.20;;
44228;SDS011;29904;51.058;5.378;2022-08-23T07:08:58;10.55;;;5.63;;
44228;SDS011;29904;51.058;5.378;2022-08-23T07:11:25;13.20;;;6.77;;
44228;SDS011;29904;51.058;5.378;2022-08-23T07:13:53;12.23;;;6.38;;
44228;SDS011;29904;51.058;5.378;2022-08-23T07:16:20;11.43;;;6.00;;
44228;SDS011;29904;51.058;5.378;2022-08-23T07:18:47;11.40;;;6.30;;
44228;SDS011;29904;51.058;5.378;2022-08-23T07:21:17;10.68;;;5.60;;
44228;SDS011;29904;51.058;5.378;2022-08-23T07:23:44;10.48;;;6.05;;
44228;SDS011;29904;51.058;5.378;2022-08-23T07:26:10;13.23;;;6.25;;
44228;SDS011;29904;51.058;5.378;2022-08-23T07:28:37;10.25;;;5.70;;
44228;SDS011;29904;51.058;5.378;2022-08-23T07:31:08;12.68;;;6.10;;
44228;SDS011;29904;51.058;5.378;2022-08-23T07:34:04;11.23;;;5.90;;
44228;SDS011;29904;51.058;5.378;2022-08-23T07:36:32;9.75;;;5.93;;
44228;SDS011;29904;51.058;5.378;2022-08-23T07:38:59;11.67;;;6.43;;
44228;SDS011;29904;51.058;5.378;2022-08-23T07:41:26;10.68;;;5.65;;
44228;SDS011;29904;51.058;5.378;2022-08-23T07:43:56;11.60;;;5.88;;
44228;SDS011;29904;51.058;5.378;2022-08-23T07:46:24;10.40;;;5.63;;
44228;SDS011;29904;51.058;5.378;2022-08-23T07:48:50;11.07;;;5.72;;
44228;SDS011;29904;51.058;5.378;2022-08-23T07:51:20;9.50;;;5.40;;
44228;SDS011;29904;51.058;5.378;2022-08-23T07:53:46;10.73;;;6.05;;
44228;SDS011;29904;51.058;5.378;2022-08-23T07:56:13;10.73;;;5.90;;
44228;SDS011;29904;51.058;5.378;2022-08-23T07:58:41;11.27;;;5.72;;
44228;SDS011;29904;51.058;5.378;2022-08-23T08:01:07;9.00;;;4.60;;
44228;SDS011;29904;51.058;5.378;2022-08-23T08:03:36;11.13;;;5.30;;
44228;SDS011;29904;51.058;5.378;2022-08-23T08:06:09;10.93;;;5.63;;
44228;SDS011;29904;51.058;5.378;2022-08-23T08:08:38;10.55;;;5.65;;
44228;SDS011;29904;51.058;5.378;2022-08-23T08:11:05;12.52;;;5.70;;
44228;SDS011;29904;51.058;5.378;2022-08-23T08:13:38;8.03;;;4.77;;
44228;SDS011;29904;51.058;5.378;2022-08-23T08:16:05;9.43;;;5.32;;
44228;SDS011;29904;51.058;5.378;2022-08-23T08:18:32;7.85;;;4.32;;
44228;SDS011;29904;51.058;5.378;2022-08-23T08:21:04;9.98;;;4.45;;
44228;SDS011;29904;51.058;5.378;2022-08-23T08:23:30;9.85;;;4.32;;
44228;SDS011;29904;51.058;5.378;2022-08-23T08:26:03;7.77;;;3.97;;
44228;SDS011;29904;51.058;5.378;2022-08-23T08:28:31;4.75;;;3.13;;
44228;SDS011;29904;51.058;5.378;2022-08-23T08:31:00;7.20;;;3.50;;
44228;SDS011;29904;51.058;5.378;2022-08-23T08:33:26;8.77;;;3.22;;
44228;SDS011;29904;51.058;5.378;2022-08-23T08:35:53;7.50;;;3.50;;
44228;SDS011;29904;51.058;5.378;2022-08-23T08:38:18;6.43;;;2.80;;
44228;SDS011;29904;51.058;5.378;2022-08-23T08:40:55;6.72;;;2.85;;
44228;SDS011;29904;51.058;5.378;2022-08-23T08:43:58;6.97;;;3.03;;
44228;SDS011;29904;51.058;5.378;2022-08-23T08:46:46;6.25;;;2.60;;
44228;SDS011;29904;51.058;5.378;2022-08-23T08:49:21;8.20;;;2.70;;
44228;SDS011;29904;51.058;5.378;2022-08-23T08:52:13;6.22;;;2.30;;
44228;SDS011;29904;51.058;5.378;2022-08-23T08:54:43;8.30;;;3.00;;
44228;SDS011;29904;51.058;5.378;2022-08-23T08:57:11;6.72;;;2.60;;
44228;SDS011;29904;51.058;5.378;2022-08-23T09:02:44;5.55;;;2.25;;
44228;SDS011;29904;51.058;5.378;2022-08-23T09:05:14;6.90;;;2.70;;
44228;SDS011;29904;51.058;5.378;2022-08-23T09:10:38;6.90;;;1.80;;
44228;SDS011;29904;51.058;5.378;2022-08-23T09:13:21;4.65;;;1.63;;
44228;SDS011;29904;51.058;5.378;2022-08-23T09:16:05;4.53;;;1.70;;
44228;SDS011;29904;51.058;5.378;2022-08-23T09:19:10;5.20;;;1.60;;
44228;SDS011;29904;51.058;5.378;2022-08-23T09:21:44;3.50;;;1.48;;
44228;SDS011;29904;51.058;5.378;2022-08-23T09:24:12;4.80;;;1.50;;
44228;SDS011;29904;51.058;5.378;2022-08-23T09:26:39;6.85;;;1.83;;
44228;SDS011;29904;51.058;5.378;2022-08-23T09:29:51;3.45;;;1.60;;
44228;SDS011;29904;51.058;5.378;2022-08-23T09:31:56;4.18;;;1.70;;
44228;SDS011;29904;51.058;5.378;2022-08-23T09:34:36;5.00;;;1.52;;
44228;SDS011;29904;51.058;5.378;2022-08-23T09:39:52;5.25;;;1.45;;
44228;SDS011;29904;51.058;5.378;2022-08-23T09:42:38;4.33;;;1.30;;
44228;SDS011;29904;51.058;5.378;2022-08-23T09:45:06;2.95;;;1.33;;
44228;SDS011;29904;51.058;5.378;2022-08-23T09:47:51;4.75;;;1.50;;
44228;SDS011;29904;51.058;5.378;2022-08-23T09:50:25;4.70;;;1.60;;
44228;SDS011;29904;51.058;5.378;2022-08-23T09:52:57;3.83;;;1.30;;
44228;SDS011;29904;51.058;5.378;2022-08-23T09:55:27;4.22;;;1.30;;
44228;SDS011;29904;51.058;5.378;2022-08-23T09:57:58;5.13;;;1.40;;
44228;SDS011;29904;51.058;5.378;2022-08-23T10:00:30;4.80;;;1.30;;
44228;SDS011;29904;51.058;5.378;2022-08-23T10:03:20;4.53;;;1.40;;
44228;SDS011;29904;51.058;5.378;2022-08-23T10:05:54;3.93;;;1.20;;
44228;SDS011;29904;51.058;5.378;2022-08-23T10:08:32;3.78;;;1.20;;
44228;SDS011;29904;51.058;5.378;2022-08-23T10:13:48;2.72;;;1.10;;
44228;SDS011;29904;51.058;5.378;2022-08-23T10:16:21;5.68;;;1.15;;
44228;SDS011;29904;51.058;5.378;2022-08-23T10:24:13;3.45;;;1.17;;
44228;SDS011;29904;51.058;5.378;2022-08-23T10:29:37;2.90;;;0.80;;
44228;SDS011;29904;51.058;5.378;2022-08-23T10:32:28;2.88;;;1.02;;
44228;SDS011;29904;51.058;5.378;2022-08-23T10:35:55;3.55;;;0.90;;
44228;SDS011;29904;51.058;5.378;2022-08-23T10:38:10;3.67;;;1.20;;
44228;SDS011;29904;51.058;5.378;2022-08-23T10:49:35;3.70;;;1.00;;
44228;SDS011;29904;51.058;5.378;2022-08-23T10:52:04;2.05;;;0.80;;
44228;SDS011;29904;51.058;5.378;2022-08-23T10:54:34;3.53;;;0.90;;
44228;SDS011;29904;51.058;5.378;2022-08-23T10:57:13;4.03;;;1.00;;
44228;SDS011;29904;51.058;5.378;2022-08-23T10:59:41;2.47;;;0.90;;
44228;SDS011;29904;51.058;5.378;2022-08-23T11:10:57;3.93;;;1.10;;
44228;SDS011;29904;51.058;5.378;2022-08-23T11:13:24;3.58;;;0.90;;
44228;SDS011;29904;51.058;5.378;2022-08-23T11:15:56;1.88;;;0.70;;
44228;SDS011;29904;51.058;5.378;2022-08-23T11:18:41;3.72;;;0.70;;
44228;SDS011;29904;51.058;5.378;2022-08-23T11:28:55;2.35;;;0.70;;
44228;SDS011;29904;51.058;5.378;2022-08-23T11:34:48;2.30;;;0.60;;
44228;SDS011;29904;51.058;5.378;2022-08-23T11:40:38;2.85;;;0.70;;
44228;SDS011;29904;51.058;5.378;2022-08-23T11:43:11;3.38;;;0.80;;
44228;SDS011;29904;51.058;5.378;2022-08-23T11:45:45;2.60;;;0.70;;
44228;SDS011;29904;51.058;5.378;2022-08-23T11:48:20;2.28;;;0.85;;
44228;SDS011;29904;51.058;5.378;2022-08-23T11:50:57;2.65;;;0.68;;
44228;SDS011;29904;51.058;5.378;2022-08-23T11:58:49;2.92;;;0.70;;
44228;SDS011;29904;51.058;5.378;2022-08-23T12:01:32;3.05;;;0.70;;
44228;SDS011;29904;51.058;5.378;2022-08-23T12:04:02;2.15;;;0.60;;
44228;SDS011;29904;51.058;5.378;2022-08-23T12:06:46;1.27;;;0.50;;
44228;SDS011;29904;51.058;5.378;2022-08-23T12:14:53;2.92;;;0.60;;
44228;SDS011;29904;51.058;5.378;2022-08-23T12:19:52;1.27;;;0.50;;
44228;SDS011;29904;51.058;5.378;2022-08-23T12:25:20;3.10;;;0.70;;
44228;SDS011;29904;51.058;5.378;2022-08-23T12:39:04;1.40;;;0.70;;
44228;SDS011;29904;51.058;5.378;2022-08-23T12:44:40;1.73;;;0.43;;
44228;SDS011;29904;51.058;5.378;2022-08-23T12:47:08;1.77;;;0.60;;
44228;SDS011;29904;51.058;5.378;2022-08-23T12:49:41;2.87;;;0.60;;
44228;SDS011;29904;51.058;5.378;2022-08-23T12:52:23;2.60;;;0.60;;
44228;SDS011;29904;51.058;5.378;2022-08-23T12:54:51;1.80;;;0.60;;
44228;SDS011;29904;51.058;5.378;2022-08-23T12:57:20;2.47;;;0.60;;
44228;SDS011;29904;51.058;5.378;2022-08-23T13:02:30;2.50;;;0.80;;
44228;SDS011;29904;51.058;5.378;2022-08-23T13:05:00;2.58;;;0.50;;
44228;SDS011;29904;51.058;5.378;2022-08-23T13:07:34;2.55;;;0.52;;
44228;SDS011;29904;51.058;5.378;2022-08-23T13:10:02;2.20;;;0.50;;
44228;SDS011;29904;51.058;5.378;2022-08-23T13:12:29;2.37;;;0.50;;
44228;SDS011;29904;51.058;5.378;2022-08-23T13:14:54;2.50;;;0.50;;
44228;SDS011;29904;51.058;5.378;2022-08-23T13:19:52;3.03;;;0.50;;
44228;SDS011;29904;51.058;5.378;2022-08-23T13:22:35;2.20;;;0.47;;
44228;SDS011;29904;51.058;5.378;2022-08-23T13:32:39;1.38;;;0.50;;
44228;SDS011;29904;51.058;5.378;2022-08-23T13:48:47;1.13;;;0.35;;
44228;SDS011;29904;51.058;5.378;2022-08-23T13:51:29;1.45;;;0.30;;
44228;SDS011;29904;51.058;5.378;2022-08-23T13:54:08;0.47;;;0.30;;
44228;SDS011;29904;51.058;5.378;2022-08-23T13:56:45;0.68;;;0.20;;
44228;SDS011;29904;51.058;5.378;2022-08-23T13:59:20;1.83;;;0.30;;
44228;SDS011;29904;51.058;5.378;2022-08-23T14:01:56;0.63;;;0.32;;
44228;SDS011;29904;51.058;5.378;2022-08-23T14:04:30;2.58;;;0.30;;
44228;SDS011;29904;51.058;5.378;2022-08-23T14:06:56;1.70;;;0.30;;
44228;SDS011;29904;51.058;5.378;2022-08-23T14:09:21;0.83;;;0.30;;
44228;SDS011;29904;51.058;5.378;2022-08-23T14:11:51;1.30;;;0.30;;
44228;SDS011;29904;51.058;5.378;2022-08-23T14:14:21;2.00;;;0.50;;
44228;SDS011;29904;51.058;5.378;2022-08-23T14:16:47;1.92;;;0.60;;
44228;SDS011;29904;51.058;5.378;2022-08-23T14:19:13;2.00;;;0.40;;
44228;SDS011;29904;51.058;5.378;2022-08-23T14:21:39;3.80;;;0.38;;
44228;SDS011;29904;51.058;5.378;2022-08-23T14:24:05;1.70;;;0.40;;
44228;SDS011;29904;51.058;5.378;2022-08-23T14:26:31;0.68;;;0.30;;
44228;SDS011;29904;51.058;5.378;2022-08-23T14:28:57;1.38;;;0.30;;
44228;SDS011;29904;51.058;5.378;2022-08-23T14:31:24;0.68;;;0.40;;
44228;SDS011;29904;51.058;5.378;2022-08-23T14:33:50;1.00;;;0.30;;
44228;SDS011;29904;51.058;5.378;2022-08-23T14:36:16;0.63;;;0.30;;
44228;SDS011;29904;51.058;5.378;2022-08-23T14:38:45;0.68;;;0.40;;
44228;SDS011;29904;51.058;5.378;2022-08-23T14:41:13;0.90;;;0.30;;
44228;SDS011;29904;51.058;5.378;2022-08-23T14:43:45;1.05;;;0.40;;
44228;SDS011;29904;51.058;5.378;2022-08-23T14:46:14;0.70;;;0.45;;
44228;SDS011;29904;51.058;5.378;2022-08-23T14:48:40;0.75;;;0.30;;
44228;SDS011;29904;51.058;5.378;2022-08-23T14:51:09;1.10;;;0.40;;
44228;SDS011;29904;51.058;5.378;2022-08-23T14:53:46;0.85;;;0.40;;
44228;SDS011;29904;51.058;5.378;2022-08-23T14:56:12;3.20;;;0.37;;
44228;SDS011;29904;51.058;5.378;2022-08-23T14:58:37;3.33;;;0.50;;
44228;SDS011;29904;51.058;5.378;2022-08-23T15:01:04;0.98;;;0.30;;
44228;SDS011;29904;51.058;5.378;2022-08-23T15:03:33;1.13;;;0.40;;
44228;SDS011;29904;51.058;5.378;2022-08-23T15:05:59;2.30;;;0.88;;
44228;SDS011;29904;51.058;5.378;2022-08-23T15:08:26;1.00;;;0.40;;
44228;SDS011;29904;51.058;5.378;2022-08-23T15:10:51;1.07;;;0.37;;
44228;SDS011;29904;51.058;5.378;2022-08-23T15:13:21;1.90;;;0.30;;
44228;SDS011;29904;51.058;5.378;2022-08-23T15:15:48;0.90;;;0.38;;
44228;SDS011;29904;51.058;5.378;2022-08-23T15:18:15;1.10;;;0.30;;
44228;SDS011;29904;51.058;5.378;2022-08-23T15:20:44;0.85;;;0.40;;
44228;SDS011;29904;51.058;5.378;2022-08-23T15:23:11;0.85;;;0.30;;
44228;SDS011;29904;51.058;5.378;2022-08-23T15:25:38;1.10;;;0.30;;
44228;SDS011;29904;51.058;5.378;2022-08-23T15:28:06;1.20;;;0.40;;
44228;SDS011;29904;51.058;5.378;2022-08-23T15:30:32;2.65;;;0.40;;
44228;SDS011;29904;51.058;5.378;2022-08-23T15:32:58;0.93;;;0.30;;
44228;SDS011;29904;51.058;5.378;2022-08-23T15:35:24;0.77;;;0.30;;
44228;SDS011;29904;51.058;5.378;2022-08-23T15:37:51;0.65;;;0.30;;
44228;SDS011;29904;51.058;5.378;2022-08-23T15:40:18;1.45;;;0.30;;
44228;SDS011;29904;51.058;5.378;2022-08-23T15:42:44;0.28;;;0.28;;
44228;SDS011;29904;51.058;5.378;2022-08-23T15:45:10;0.60;;;0.30;;
44228;SDS011;29904;51.058;5.378;2022-08-23T15:47:41;1.60;;;0.20;;
44228;SDS011;29904;51.058;5.378;2022-08-23T15:50:17;0.30;;;0.20;;
44228;SDS011;29904;51.058;5.378;2022-08-23T15:52:48;0.82;;;0.30;;
44228;SDS011;29904;51.058;5.378;2022-08-23T15:55:14;2.50;;;0.30;;
44228;SDS011;29904;51.058;5.378;2022-08-23T15:57:43;0.73;;;0.30;;
44228;SDS011;29904;51.058;5.378;2022-08-23T16:00:11;1.13;;;0.40;;
44228;SDS011;29904;51.058;5.378;2022-08-23T16:02:38;0.87;;;0.30;;
44228;SDS011;29904;51.058;5.378;2022-08-23T16:05:05;0.82;;;0.30;;
44228;SDS011;29904;51.058;5.378;2022-08-23T16:07:33;2.70;;;0.30;;
44228;SDS011;29904;51.058;5.378;2022-08-23T16:09:59;2.90;;;0.30;;
44228;SDS011;29904;51.058;5.378;2022-08-23T16:12:27;1.02;;;0.30;;
44228;SDS011;29904;51.058;5.378;2022-08-23T16:14:53;0.93;;;0.30;;
44228;SDS011;29904;51.058;5.378;2022-08-23T16:17:19;0.65;;;0.25;;
44228;SDS011;29904;51.058;5.378;2022-08-23T16:19:47;1.50;;;0.30;;
44228;SDS011;29904;51.058;5.378;2022-08-23T16:22:13;2.00;;;0.30;;
44228;SDS011;29904;51.058;5.378;2022-08-23T16:24:39;1.80;;;0.30;;
44228;SDS011;29904;51.058;5.378;2022-08-23T16:27:07;1.08;;;0.20;;
44228;SDS011;29904;51.058;5.378;2022-08-23T16:29:33;0.52;;;0.30;;
44228;SDS011;29904;51.058;5.378;2022-08-23T16:32:00;1.75;;;0.20;;
44228;SDS011;29904;51.058;5.378;2022-08-23T16:34:27;0.52;;;0.25;;
44228;SDS011;29904;51.058;5.378;2022-08-23T16:36:58;0.93;;;0.20;;
44228;SDS011;29904;51.058;5.378;2022-08-23T16:39:26;0.80;;;0.20;;
44228;SDS011;29904;51.058;5.378;2022-08-23T16:41:52;1.40;;;0.20;;
44228;SDS011;29904;51.058;5.378;2022-08-23T16:44:19;0.88;;;0.28;;
44228;SDS011;29904;51.058;5.378;2022-08-23T16:46:45;1.30;;;0.20;;
44228;SDS011;29904;51.058;5.378;2022-08-23T16:49:12;1.58;;;0.30;;
44228;SDS011;29904;51.058;5.378;2022-08-23T16:51:40;2.25;;;0.40;;